Time;durP1;ratioP1;P1;durP2;ratioP2;P2;SDS_P1;SDS_P2;PMS_P1;PMS_P2;Temp;Humidity;BMP_temperature;BMP_pressure;BME280_temperature;BME280_humidity;BME280_pressure;Samples;Min_cycle;Max_cycle;Signal;HPM_P1;HPM_P2
2022/08/15 00:01:02;;;;;;;7.40;3.40;;;;;;;;;;5006589;28;20392;-76
2022/08/15 00:03:32;;;;;;;9.38;3.50;;;;;;;;;;5006677;28;20033;-76
2022/08/15 00:06:03;;;;;;;8.45;3.35;;;;;;;;;;5006167;28;20484;-77
2022/08/15 00:08:30;;;;;;;7.88;3.58;;;;;;;;;;5006221;28;20583;-75
2022/08/15 00:11:00;;;;;;;8.88;3.33;;;;;;;;;;5006225;28;20041;-75
2022/08/15 00:13:28;;;;;;;6.03;3.10;;;;;;;;;;5006397;28;20106;-75
2022/08/15 00:15:55;;;;;;;9.90;3.35;;;;;;;;;;5009296;28;20029;-76
2022/08/15 00:18:22;;;;;;;8.10;3.80;;;;;;;;;;5009891;28;20022;-76
2022/08/15 00:20:48;;;;;;;8.85;3.78;;;;;;;;;;5010070;28;20026;-75
2022/08/15 00:23:19;;;;;;;9.07;3.70;;;;;;;;;;5008315;28;20059;-77
2022/08/15 00:25:47;;;;;;;7.07;3.60;;;;;;;;;;5009788;28;20022;-75
2022/08/15 00:28:13;;;;;;;8.10;3.45;;;;;;;;;;5010150;28;20031;-76
2022/08/15 00:30:41;;;;;;;7.68;3.60;;;;;;;;;;5009436;28;20022;-75
2022/08/15 00:33:07;;;;;;;8.38;4.00;;;;;;;;;;5009643;28;20032;-75
2022/08/15 00:35:36;;;;;;;7.63;3.72;;;;;;;;;;5009709;28;20116;-75
2022/08/15 00:38:34;;;;;;;7.57;3.40;;;;;;;;;;5009499;28;20101;-75
2022/08/15 00:43:54;;;;;;;7.00;2.92;;;;;;;;;;5009572;28;20398;-75
2022/08/15 00:46:20;;;;;;;7.78;2.92;;;;;;;;;;5009367;28;20034;-75
2022/08/15 00:48:46;;;;;;;7.15;2.75;;;;;;;;;;5009590;28;20066;-75
2022/08/15 00:51:22;;;;;;;5.97;2.95;;;;;;;;;;5009297;28;20110;-77
2022/08/15 00:54:23;;;;;;;7.57;2.42;;;;;;;;;;5009442;28;20022;-77
2022/08/15 00:56:55;;;;;;;8.05;2.83;;;;;;;;;;5016404;28;20042;-77
2022/08/15 00:59:25;;;;;;;8.23;2.67;;;;;;;;;;5009328;28;20029;-76
2022/08/15 01:01:51;;;;;;;7.32;2.53;;;;;;;;;;5009394;28;20033;-77
2022/08/15 01:04:17;;;;;;;4.65;2.60;;;;;;;;;;5009225;28;20454;-77
2022/08/15 01:06:45;;;;;;;6.25;2.47;;;;;;;;;;5008484;28;20065;-77
2022/08/15 01:09:13;;;;;;;9.45;2.60;;;;;;;;;;5007910;28;20081;-76
2022/08/15 01:11:44;;;;;;;7.35;2.60;;;;;;;;;;5009035;28;20030;-77
2022/08/15 01:14:10;;;;;;;7.70;2.70;;;;;;;;;;5009280;28;20082;-76
2022/08/15 01:16:40;;;;;;;7.35;2.75;;;;;;;;;;5009031;28;20029;-76
2022/08/15 01:19:13;;;;;;;5.30;2.35;;;;;;;;;;5009000;28;20026;-76
2022/08/15 01:21:52;;;;;;;5.78;2.45;;;;;;;;;;5008405;28;20056;-78
2022/08/15 01:24:38;;;;;;;6.15;2.63;;;;;;;;;;5008825;28;20075;-79
2022/08/15 01:27:04;;;;;;;4.60;2.25;;;;;;;;;;5008462;28;20105;-79
2022/08/15 01:29:29;;;;;;;7.05;2.70;;;;;;;;;;5008660;28;20582;-79
2022/08/15 01:31:55;;;;;;;5.82;2.42;;;;;;;;;;5009037;28;20100;-78
2022/08/15 01:34:20;;;;;;;7.50;2.40;;;;;;;;;;5008806;28;20078;-79
2022/08/15 01:36:48;;;;;;;5.60;2.50;;;;;;;;;;5008386;28;20029;-77
2022/08/15 01:39:41;;;;;;;7.38;2.70;;;;;;;;;;5008621;28;20038;-75
2022/08/15 01:42:18;;;;;;;6.80;2.50;;;;;;;;;;5010465;28;20098;-77
2022/08/15 01:45:00;;;;;;;8.25;2.63;;;;;;;;;;5008696;28;20061;-76
2022/08/15 01:47:34;;;;;;;7.65;2.35;;;;;;;;;;5008517;28;20026;-76
2022/08/15 01:50:15;;;;;;;7.60;2.55;;;;;;;;;;5008539;28;20026;-77
2022/08/15 01:52:50;;;;;;;;;;;;;;;;;;5008632;28;20026;-76
2022/08/15 01:55:17;;;;;;;6.93;2.63;;;;;;;;;;5008459;28;20510;-76
2022/08/15 01:57:42;;;;;;;5.15;2.22;;;;;;;;;;5008335;28;20022;-78
2022/08/15 02:00:10;;;;;;;8.98;2.60;;;;;;;;;;5008093;28;20482;-78
2022/08/15 02:02:35;;;;;;;5.25;2.58;;;;;;;;;;5008353;28;20049;-78
2022/08/15 02:05:01;;;;;;;6.97;2.80;;;;;;;;;;5008300;28;20088;-79
2022/08/15 02:07:28;;;;;;;7.10;2.60;;;;;;;;;;5008009;28;20042;-76
2022/08/15 02:09:55;;;;;;;8.55;2.72;;;;;;;;;;5006998;28;20094;-77
2022/08/15 02:12:26;;;;;;;6.05;2.53;;;;;;;;;;5008337;28;20106;-77
2022/08/15 02:14:51;;;;;;;5.75;2.40;;;;;;;;;;5007870;28;20102;-77
2022/08/15 02:17:17;;;;;;;6.45;2.45;;;;;;;;;;5008085;28;20583;-78
2022/08/15 02:19:46;;;;;;;11.80;2.88;;;;;;;;;;5008202;28;20027;-77
2022/08/15 02:22:13;;;;;;;5.77;2.33;;;;;;;;;;5006398;28;20050;-77
2022/08/15 02:24:38;;;;;;;7.40;2.80;;;;;;;;;;5008141;28;20109;-77
2022/08/15 02:27:05;;;;;;;7.30;2.53;;;;;;;;;;5008199;28;20116;-77
2022/08/15 02:29:32;;;;;;;7.20;2.33;;;;;;;;;;5007668;28;20057;-78
2022/08/15 02:32:07;;;;;;;7.43;2.60;;;;;;;;;;5007626;28;20034;-78
2022/08/15 02:34:34;;;;;;;6.97;2.45;;;;;;;;;;5006374;28;20057;-79
2022/08/15 02:37:03;;;;;;;10.55;2.67;;;;;;;;;;5006455;28;20026;-77
2022/08/15 02:39:29;;;;;;;8.23;2.75;;;;;;;;;;5008066;28;20435;-77
2022/08/15 02:41:54;;;;;;;9.25;2.83;;;;;;;;;;5007694;28;20470;-77
2022/08/15 02:44:21;;;;;;;9.50;2.80;;;;;;;;;;5007807;28;20456;-76
2022/08/15 02:46:49;;;;;;;6.43;2.30;;;;;;;;;;5007530;28;20061;-76
2022/08/15 02:49:15;;;;;;;8.32;2.90;;;;;;;;;;5007543;28;20106;-75
2022/08/15 02:51:42;;;;;;;7.22;2.70;;;;;;;;;;5007113;28;20037;-76
2022/08/15 02:54:09;;;;;;;8.07;2.65;;;;;;;;;;5007612;28;20113;-75
2022/08/15 02:56:35;;;;;;;6.90;2.60;;;;;;;;;;5007544;28;20030;-75
2022/08/15 02:59:01;;;;;;;5.20;2.50;;;;;;;;;;5007783;28;20029;-76
2022/08/15 03:01:27;;;;;;;7.47;2.58;;;;;;;;;;5007647;28;20605;-76
2022/08/15 03:03:55;;;;;;;8.40;2.80;;;;;;;;;;5007551;28;20029;-75
2022/08/15 03:06:27;;;;;;;8.73;2.72;;;;;;;;;;5006814;28;20038;-75
2022/08/15 03:08:53;;;;;;;7.35;2.50;;;;;;;;;;5007056;28;20038;-76
2022/08/15 03:11:20;;;;;;;8.07;2.60;;;;;;;;;;5007138;28;20033;-77
2022/08/15 03:13:45;;;;;;;9.18;2.70;;;;;;;;;;5007423;28;20556;-76
2022/08/15 03:16:12;;;;;;;7.00;2.65;;;;;;;;;;5007326;28;20082;-76
2022/08/15 03:18:38;;;;;;;11.13;3.03;;;;;;;;;;5007298;28;20030;-77
2022/08/15 03:21:06;;;;;;;7.47;2.70;;;;;;;;;;5007075;28;20401;-76
2022/08/15 03:23:32;;;;;;;8.80;3.00;;;;;;;;;;5006654;28;20026;-76
2022/08/15 03:26:00;;;;;;;6.93;2.50;;;;;;;;;;5007033;28;20032;-76
2022/08/15 03:28:28;;;;;;;6.90;2.78;;;;;;;;;;5006883;28;20038;-76
2022/08/15 03:30:55;;;;;;;5.72;2.38;;;;;;;;;;5006910;28;20114;-76
2022/08/15 03:33:20;;;;;;;6.60;2.42;;;;;;;;;;5005681;28;20033;-76
2022/08/15 03:35:49;;;;;;;6.40;2.50;;;;;;;;;;5006994;28;20041;-76
2022/08/15 03:38:15;;;;;;;10.02;2.60;;;;;;;;;;5006523;28;20033;-77
2022/08/15 03:40:43;;;;;;;6.70;2.40;;;;;;;;;;5006934;28;20037;-77
2022/08/15 03:43:14;;;;;;;6.30;2.50;;;;;;;;;;5006737;28;20079;-77
2022/08/15 03:45:47;;;;;;;4.75;2.30;;;;;;;;;;5006831;28;20025;-77
2022/08/15 03:48:13;;;;;;;7.30;2.60;;;;;;;;;;5006668;28;20037;-76
2022/08/15 03:50:38;;;;;;;5.05;2.45;;;;;;;;;;5006641;28;20029;-77
2022/08/15 03:53:06;;;;;;;6.80;2.70;;;;;;;;;;5006507;28;20109;-76
2022/08/15 03:55:36;;;;;;;9.75;2.60;;;;;;;;;;5006913;28;20037;-76
2022/08/15 03:58:02;;;;;;;6.80;2.25;;;;;;;;;;5006739;28;20377;-76
2022/08/15 04:00:33;;;;;;;6.78;2.58;;;;;;;;;;5006496;28;20045;-76
2022/08/15 04:03:12;;;;;;;6.25;2.42;;;;;;;;;;5006601;28;20037;-77
2022/08/15 04:05:38;;;;;;;7.63;2.40;;;;;;;;;;5006481;28;20050;-76
2022/08/15 04:08:06;;;;;;;4.82;2.45;;;;;;;;;;5006217;28;20034;-76
2022/08/15 04:10:33;;;;;;;8.75;2.40;;;;;;;;;;5006674;28;20503;-77
2022/08/15 04:13:00;;;;;;;6.10;2.40;;;;;;;;;;5005309;28;20071;-76
2022/08/15 04:15:29;;;;;;;6.55;2.65;;;;;;;;;;5005178;28;20026;-75
2022/08/15 04:17:55;;;;;;;6.03;2.53;;;;;;;;;;5006329;28;20034;-76
2022/08/15 04:20:21;;;;;;;6.82;2.40;;;;;;;;;;5006488;28;20071;-76
2022/08/15 04:22:49;;;;;;;6.82;2.70;;;;;;;;;;5005906;28;20033;-76
2022/08/15 04:25:19;;;;;;;7.93;2.60;;;;;;;;;;5006453;28;20026;-77
2022/08/15 04:27:50;;;;;;;8.55;2.60;;;;;;;;;;5006350;28;20034;-77
2022/08/15 04:30:16;;;;;;;4.97;2.30;;;;;;;;;;5006386;28;20382;-76
2022/08/15 04:32:42;;;;;;;6.53;2.60;;;;;;;;;;5006208;28;20041;-76
2022/08/15 04:35:10;;;;;;;7.63;2.40;;;;;;;;;;5006051;28;20118;-76
2022/08/15 04:37:37;;;;;;;8.50;2.70;;;;;;;;;;5006010;28;20064;-76
2022/08/15 04:40:08;;;;;;;7.13;2.50;;;;;;;;;;5006268;28;20056;-76
2022/08/15 04:42:45;;;;;;;6.97;2.20;;;;;;;;;;5005839;28;20496;-77
2022/08/15 04:45:10;;;;;;;8.07;2.30;;;;;;;;;;5006443;28;20079;-76
2022/08/15 04:47:36;;;;;;;7.43;2.30;;;;;;;;;;5006099;28;20026;-75
2022/08/15 04:50:01;;;;;;;5.82;2.60;;;;;;;;;;5005995;28;20082;-76
2022/08/15 04:52:26;;;;;;;4.72;2.30;;;;;;;;;;5005417;28;20521;-75
2022/08/15 04:54:52;;;;;;;7.10;2.75;;;;;;;;;;5006008;28;20022;-75
2022/08/15 04:57:17;;;;;;;6.70;2.42;;;;;;;;;;5005974;28;20394;-76
2022/08/15 04:59:43;;;;;;;7.55;2.70;;;;;;;;;;5006072;28;20118;-75
2022/08/15 05:02:11;;;;;;;7.05;2.70;;;;;;;;;;5008808;28;20390;-75
2022/08/15 05:04:37;;;;;;;5.35;2.50;;;;;;;;;;5009356;28;20033;-75
2022/08/15 05:07:03;;;;;;;5.47;2.53;;;;;;;;;;5008541;28;20543;-75
2022/08/15 05:09:29;;;;;;;6.82;2.50;;;;;;;;;;5009106;28;20030;-76
2022/08/15 05:11:54;;;;;;;7.30;2.30;;;;;;;;;;5007592;28;20525;-77
2022/08/15 05:14:20;;;;;;;6.13;2.40;;;;;;;;;;5009099;28;20033;-76
2022/08/15 05:16:45;;;;;;;7.65;2.50;;;;;;;;;;5007926;28;20034;-76
2022/08/15 05:19:11;;;;;;;5.70;2.50;;;;;;;;;;5009089;28;20030;-75
2022/08/15 05:21:38;;;;;;;4.75;2.33;;;;;;;;;;5007267;28;20150;-75
2022/08/15 05:24:03;;;;;;;4.93;2.50;;;;;;;;;;5009038;28;20590;-75
2022/08/15 05:26:30;;;;;;;6.72;2.60;;;;;;;;;;5008694;28;20105;-75
2022/08/15 05:28:55;;;;;;;12.85;2.67;;;;;;;;;;5008673;28;20069;-75
2022/08/15 05:31:20;;;;;;;7.65;2.50;;;;;;;;;;5008700;28;20050;-75
2022/08/15 05:33:47;;;;;;;7.40;2.42;;;;;;;;;;5008882;28;20057;-75
2022/08/15 05:36:14;;;;;;;6.82;2.72;;;;;;;;;;5008613;28;20082;-76
2022/08/15 05:38:44;;;;;;;6.82;2.63;;;;;;;;;;5008829;28;20495;-74
2022/08/15 05:41:24;;;;;;;;;;;;;;;;;;5008993;28;20032;-74
2022/08/15 05:43:57;;;;;;;6.15;2.60;;;;;;;;;;5008598;28;19920;-76
2022/08/15 05:46:59;;;;;;;7.25;2.90;;;;;;;;;;5008521;28;20034;-76
2022/08/15 05:49:39;;;;;;;8.38;2.60;;;;;;;;;;5008347;28;20038;-75
2022/08/15 05:52:17;;;;;;;5.70;2.40;;;;;;;;;;5008223;28;20026;-77
2022/08/15 05:55:12;;;;;;;6.00;2.65;;;;;;;;;;5008511;28;20030;-78
2022/08/15 05:57:47;;;;;;;7.22;2.72;;;;;;;;;;5008449;28;20041;-77
2022/08/15 06:00:15;;;;;;;10.00;3.00;;;;;;;;;;5008480;28;20025;-78
2022/08/15 06:02:49;;;;;;;4.80;2.28;;;;;;;;;;5008191;28;20022;-76
2022/08/15 06:05:28;;;;;;;4.68;2.50;;;;;;;;;;5008047;28;20041;-79
2022/08/15 06:07:55;;;;;;;6.63;2.58;;;;;;;;;;5007921;28;20548;-79
2022/08/15 06:10:30;;;;;;;8.75;2.58;;;;;;;;;;5007121;28;20050;-78
2022/08/15 06:13:10;;;;;;;6.55;2.35;;;;;;;;;;5007017;28;20414;-78
2022/08/15 06:16:00;;;;;;;6.00;2.70;;;;;;;;;;5008464;28;20026;-78
2022/08/15 06:18:29;;;;;;;8.73;2.70;;;;;;;;;;5007925;28;20486;-78
2022/08/15 06:20:57;;;;;;;8.02;2.80;;;;;;;;;;5008015;28;20510;-78
2022/08/15 06:23:28;;;;;;;7.75;2.58;;;;;;;;;;5007704;28;20037;-77
2022/08/15 06:26:06;;;;;;;5.97;2.53;;;;;;;;;;5008185;28;20497;-77
2022/08/15 06:28:49;;;;;;;8.35;2.83;;;;;;;;;;5006735;28;20026;-78
2022/08/15 06:31:24;;;;;;;9.10;2.83;;;;;;;;;;5007894;28;20449;-77
2022/08/15 06:34:06;;;;;;;9.38;3.00;;;;;;;;;;5007840;28;20028;-77
2022/08/15 06:36:59;;;;;;;6.90;2.65;;;;;;;;;;5007530;28;20030;-78
2022/08/15 06:39:47;;;;;;;7.72;2.83;;;;;;;;;;5007501;28;20060;-78
2022/08/15 06:42:25;;;;;;;7.60;2.90;;;;;;;;;;5007598;28;20026;-78
2022/08/15 06:44:55;;;;;;;7.32;2.70;;;;;;;;;;5008034;28;20504;-78
2022/08/15 06:47:23;;;;;;;6.57;2.60;;;;;;;;;;5007889;28;20026;-78
2022/08/15 06:49:53;;;;;;;7.20;2.92;;;;;;;;;;5007536;28;20038;-78
2022/08/15 06:52:19;;;;;;;;;;;;;;;;;;5007683;28;20029;-78
2022/08/15 06:54:45;;;;;;;9.73;3.00;;;;;;;;;;5007315;28;20365;-78
2022/08/15 06:57:33;;;;;;;6.82;2.75;;;;;;;;;;5007429;28;20026;-77
2022/08/15 07:00:10;;;;;;;11.75;3.00;;;;;;;;;;5007584;28;20030;-77
2022/08/15 07:02:52;;;;;;;8.18;2.83;;;;;;;;;;5007369;28;20026;-76
2022/08/15 07:05:22;;;;;;;8.35;2.70;;;;;;;;;;5007199;28;20046;-78
2022/08/15 07:07:56;;;;;;;6.03;2.88;;;;;;;;;;5006712;28;20643;-79
2022/08/15 07:10:40;;;;;;;8.63;3.20;;;;;;;;;;5007389;28;20489;-77
2022/08/15 07:13:12;;;;;;;7.50;2.90;;;;;;;;;;5006847;28;20025;-77
2022/08/15 07:15:47;;;;;;;8.30;3.28;;;;;;;;;;5007278;28;20022;-75
2022/08/15 07:18:20;;;;;;;9.95;3.10;;;;;;;;;;5007159;28;20087;-76
2022/08/15 07:20:45;;;;;;;7.63;2.97;;;;;;;;;;5007235;28;20028;-75
2022/08/15 07:23:20;;;;;;;8.40;2.92;;;;;;;;;;5006252;28;20090;-76
2022/08/15 07:25:48;;;;;;;5.88;2.97;;;;;;;;;;5005761;28;20529;-76
2022/08/15 07:28:17;;;;;;;5.60;3.10;;;;;;;;;;5007110;28;20045;-75
2022/08/15 07:30:59;;;;;;;9.25;3.10;;;;;;;;;;5005630;28;20033;-75
2022/08/15 07:33:42;;;;;;;8.40;3.15;;;;;;;;;;5006684;28;20026;-76
2022/08/15 07:36:26;;;;;;;9.40;3.15;;;;;;;;;;5005410;28;20582;-76
2022/08/15 07:38:53;;;;;;;9.13;3.15;;;;;;;;;;5007128;28;20367;-77
2022/08/15 07:41:30;;;;;;;11.15;3.53;;;;;;;;;;5006993;28;20033;-77
2022/08/15 07:44:14;;;;;;;7.65;3.10;;;;;;;;;;5006659;28;20030;-77
2022/08/15 07:46:44;;;;;;;7.68;2.95;;;;;;;;;;5006831;28;20025;-77
2022/08/15 07:49:34;;;;;;;8.35;3.22;;;;;;;;;;5006965;28;20056;-77
2022/08/15 07:52:18;;;;;;;8.57;3.33;;;;;;;;;;5010788;28;20041;-76
2022/08/15 07:54:46;;;;;;;6.05;2.78;;;;;;;;;;5005415;28;20266;-77
2022/08/15 07:57:24;;;;;;;8.23;2.83;;;;;;;;;;5006900;28;20022;-77
2022/08/15 08:00:09;;;;;;;8.45;3.10;;;;;;;;;;5005496;28;20031;-76
2022/08/15 08:02:42;;;;;;;7.90;3.30;;;;;;;;;;5006556;28;20109;-77
2022/08/15 08:05:10;;;;;;;9.20;3.15;;;;;;;;;;5006369;28;20050;-77
2022/08/15 08:07:40;;;;;;;8.60;3.47;;;;;;;;;;5004653;28;20026;-78
2022/08/15 08:10:14;;;;;;;6.82;2.90;;;;;;;;;;5006507;28;20105;-77
2022/08/15 08:12:58;;;;;;;7.85;2.97;;;;;;;;;;5006443;28;20061;-77
2022/08/15 08:15:30;;;;;;;10.13;3.13;;;;;;;;;;5006499;28;20528;-77
2022/08/15 08:18:05;;;;;;;10.18;3.10;;;;;;;;;;5006507;28;20030;-78
2022/08/15 08:20:45;;;;;;;7.35;2.90;;;;;;;;;;5006514;28;20079;-78
2022/08/15 08:23:30;;;;;;;9.97;3.40;;;;;;;;;;5005934;28;20509;-76
2022/08/15 08:25:58;;;;;;;9.55;3.45;;;;;;;;;;5006454;28;20033;-76
2022/08/15 08:28:56;;;;;;;6.88;3.20;;;;;;;;;;5004864;28;20041;-77
2022/08/15 08:31:30;;;;;;;9.18;3.10;;;;;;;;;;5013616;28;20042;-77
2022/08/15 08:34:07;;;;;;;7.80;2.90;;;;;;;;;;5006216;28;20034;-76
2022/08/15 08:36:36;;;;;;;9.73;2.85;;;;;;;;;;5008066;28;20026;-76
2022/08/15 08:39:22;;;;;;;9.63;2.95;;;;;;;;;;5009600;28;20066;-78
2022/08/15 08:42:02;;;;;;;8.43;3.38;;;;;;;;;;5009376;28;20033;-77
2022/08/15 08:44:33;;;;;;;;;;;;;;;;;;5009677;28;20499;-76
2022/08/15 08:47:23;;;;;;;10.98;3.25;;;;;;;;;;5009709;28;19973;-75
2022/08/15 08:49:55;;;;;;;8.13;3.03;;;;;;;;;;5009637;28;20064;-77
2022/08/15 08:52:52;;;;;;;13.13;3.40;;;;;;;;;;5009398;28;20055;-77
2022/08/15 08:55:31;;;;;;;7.72;3.10;;;;;;;;;;5009429;28;20034;-77
2022/08/15 08:58:06;;;;;;;7.50;3.30;;;;;;;;;;5009350;28;20057;-76
2022/08/15 09:00:40;;;;;;;9.07;3.40;;;;;;;;;;5009330;28;20604;-76
2022/08/15 09:03:14;;;;;;;8.80;3.00;;;;;;;;;;5009035;28;20041;-76
2022/08/15 09:05:52;;;;;;;8.23;2.78;;;;;;;;;;5009291;28;20053;-76
2022/08/15 09:08:51;;;;;;;6.63;3.15;;;;;;;;;;5008858;28;20619;-77
2022/08/15 09:11:36;;;;;;;8.55;2.70;;;;;;;;;;5009184;28;20026;-77
2022/08/15 09:14:17;;;;;;;6.70;2.97;;;;;;;;;;5008885;28;20500;-77
2022/08/15 09:16:44;;;;;;;8.10;2.92;;;;;;;;;;5008972;28;20037;-77
2022/08/15 09:19:09;;;;;;;8.63;3.13;;;;;;;;;;5008958;28;20610;-76
2022/08/15 09:21:35;;;;;;;6.80;3.17;;;;;;;;;;5008750;28;20022;-76
2022/08/15 09:24:01;;;;;;;9.18;3.20;;;;;;;;;;5008953;28;20022;-75
2022/08/15 09:26:29;;;;;;;6.20;2.75;;;;;;;;;;5008977;28;20476;-75
2022/08/15 09:29:27;;;;;;;6.30;2.70;;;;;;;;;;5008898;28;20049;-76
2022/08/15 09:32:05;;;;;;;8.75;3.13;;;;;;;;;;5008843;28;20033;-76
2022/08/15 09:34:50;;;;;;;7.70;3.13;;;;;;;;;;5008541;28;20060;-76
2022/08/15 09:37:39;;;;;;;8.00;3.20;;;;;;;;;;5007039;28;20540;-77
2022/08/15 09:40:11;;;;;;;10.05;3.35;;;;;;;;;;5008803;28;20022;-77
2022/08/15 09:42:55;;;;;;;6.60;3.00;;;;;;;;;;5008535;28;20385;-77
2022/08/15 09:45:32;;;;;;;9.25;3.15;;;;;;;;;;5008722;28;20042;-78
2022/08/15 09:48:07;;;;;;;10.13;3.03;;;;;;;;;;5008379;28;20026;-75
2022/08/15 09:50:37;;;;;;;6.55;2.80;;;;;;;;;;5008569;28;20034;-77
2022/08/15 09:53:06;;;;;;;7.05;2.80;;;;;;;;;;5006455;28;20032;-77
2022/08/15 09:55:44;;;;;;;6.82;2.92;;;;;;;;;;5008431;28;20508;-76
2022/08/15 09:58:26;;;;;;;9.15;3.13;;;;;;;;;;5008554;28;20029;-75
2022/08/15 10:01:19;;;;;;;8.00;2.88;;;;;;;;;;5008614;28;20033;-76
2022/08/15 10:03:44;;;;;;;7.35;3.00;;;;;;;;;;5008168;28;20026;-76
2022/08/15 10:06:20;;;;;;;8.93;2.80;;;;;;;;;;5007717;28;20046;-76
2022/08/15 10:08:52;;;;;;;7.95;3.03;;;;;;;;;;5006663;28;20040;-76
2022/08/15 10:11:31;;;;;;;9.73;2.90;;;;;;;;;;5008234;28;20033;-76
2022/08/15 10:14:06;;;;;;;6.47;2.97;;;;;;;;;;5008042;28;20022;-75
2022/08/15 10:16:39;;;;;;;10.35;3.22;;;;;;;;;;5008332;28;20045;-76
2022/08/15 10:19:25;;;;;;;5.95;3.08;;;;;;;;;;5008362;28;20075;-76
2022/08/15 10:21:51;;;;;;;7.90;3.28;;;;;;;;;;5007797;28;20657;-76
2022/08/15 10:24:28;;;;;;;8.32;3.00;;;;;;;;;;5008003;28;20030;-76
2022/08/15 10:27:07;;;;;;;7.43;2.90;;;;;;;;;;5007924;28;20029;-76
2022/08/15 10:29:52;;;;;;;8.18;3.03;;;;;;;;;;5007804;28;20363;-76
2022/08/15 10:32:32;;;;;;;7.85;3.42;;;;;;;;;;5008080;28;20022;-76
2022/08/15 10:35:03;;;;;;;10.10;3.25;;;;;;;;;;5007958;28;20029;-76
2022/08/15 10:37:39;;;;;;;8.02;3.00;;;;;;;;;;5007643;28;20037;-76
2022/08/15 10:40:20;;;;;;;6.18;2.90;;;;;;;;;;5007831;28;20038;-76
2022/08/15 10:43:19;;;;;;;7.20;3.15;;;;;;;;;;5007671;28;20049;-74
2022/08/15 10:45:56;;;;;;;8.80;2.80;;;;;;;;;;5007622;28;20084;-77
2022/08/15 10:48:27;;;;;;;6.95;2.97;;;;;;;;;;5007489;28;20072;-77
2022/08/15 10:51:16;;;;;;;7.40;2.85;;;;;;;;;;5007934;28;20104;-77
2022/08/15 10:53:50;;;;;;;9.10;3.10;;;;;;;;;;5007531;28;20061;-76
2022/08/15 10:56:21;;;;;;;10.27;3.03;;;;;;;;;;5007683;28;20030;-76
2022/08/15 10:58:49;;;;;;;7.28;3.08;;;;;;;;;;5006586;28;20385;-77
2022/08/15 11:01:20;;;;;;;7.28;3.22;;;;;;;;;;5007482;28;20075;-77
2022/08/15 11:04:13;;;;;;;7.80;3.08;;;;;;;;;;5007261;28;20521;-77
2022/08/15 11:06:47;;;;;;;8.73;3.35;;;;;;;;;;5007007;28;20658;-78
2022/08/15 11:09:17;;;;;;;7.25;3.00;;;;;;;;;;5007307;28;20397;-77
2022/08/15 11:12:12;;;;;;;;;;;;;;;;;;5007833;28;20598;-78
2022/08/15 11:14:43;;;;;;;7.50;3.13;;;;;;;;;;5015263;28;19917;-79
2022/08/15 11:17:18;;;;;;;7.15;3.13;;;;;;;;;;5007449;28;20052;-78
2022/08/15 11:19:48;;;;;;;8.02;3.03;;;;;;;;;;5007062;28;20040;-79
2022/08/15 11:22:18;;;;;;;5.83;2.80;;;;;;;;;;5006866;28;20022;-78
2022/08/15 11:25:00;;;;;;;8.60;3.13;;;;;;;;;;5006972;28;20057;-77
2022/08/15 11:27:26;;;;;;;6.65;3.00;;;;;;;;;;5007080;28;20037;-78
2022/08/15 11:29:54;;;;;;;6.85;2.88;;;;;;;;;;5005765;28;20121;-78
2022/08/15 11:32:23;;;;;;;5.60;2.88;;;;;;;;;;5006932;28;20030;-78
2022/08/15 11:34:51;;;;;;;6.95;3.10;;;;;;;;;;5006786;28;20025;-78
2022/08/15 11:37:23;;;;;;;9.45;3.05;;;;;;;;;;5006471;28;20087;-77
2022/08/15 11:40:27;;;;;;;8.43;3.08;;;;;;;;;;5006933;28;20030;-77
2022/08/15 11:42:54;;;;;;;6.90;2.92;;;;;;;;;;5046515;28;20033;-77
2022/08/15 11:45:26;;;;;;;5.75;2.95;;;;;;;;;;5014816;28;20038;-78
2022/08/15 11:47:57;;;;;;;7.35;2.75;;;;;;;;;;5006903;28;20034;-77
2022/08/15 11:50:28;;;;;;;5.65;2.97;;;;;;;;;;5006734;28;20042;-78
2022/08/15 11:53:01;;;;;;;6.60;3.20;;;;;;;;;;5006410;28;20033;-78
2022/08/15 11:55:27;;;;;;;5.97;3.00;;;;;;;;;;5006408;28;20109;-78
2022/08/15 11:58:17;;;;;;;7.80;3.10;;;;;;;;;;5007014;28;20086;-78
2022/08/15 12:00:52;;;;;;;7.13;2.95;;;;;;;;;;5006646;28;20095;-78
2022/08/15 12:03:27;;;;;;;7.35;2.95;;;;;;;;;;5006704;28;20042;-77
2022/08/15 12:06:17;;;;;;;7.97;2.80;;;;;;;;;;5006345;28;20069;-77
2022/08/15 12:08:44;;;;;;;5.78;2.60;;;;;;;;;;5006240;28;20506;-77
2022/08/15 12:11:13;;;;;;;7.22;2.90;;;;;;;;;;5009688;28;20401;-78
2022/08/15 12:13:40;;;;;;;7.90;2.65;;;;;;;;;;5008703;28;20034;-77
2022/08/15 12:16:22;;;;;;;7.20;2.83;;;;;;;;;;5009790;28;20086;-77
2022/08/15 12:18:48;;;;;;;6.00;3.10;;;;;;;;;;5008795;28;20029;-77
2022/08/15 12:21:13;;;;;;;5.90;3.03;;;;;;;;;;5009619;28;20644;-77
2022/08/15 12:23:54;;;;;;;5.10;2.88;;;;;;;;;;5010146;28;20050;-77
2022/08/15 12:26:20;;;;;;;6.15;3.00;;;;;;;;;;5009875;28;20538;-77
2022/08/15 12:28:47;;;;;;;6.85;2.83;;;;;;;;;;5009747;28;20059;-77
2022/08/15 12:31:38;;;;;;;6.60;3.05;;;;;;;;;;5009817;28;20530;-77
2022/08/15 12:34:19;;;;;;;6.32;2.80;;;;;;;;;;5009571;28;20026;-77
2022/08/15 12:36:45;;;;;;;6.15;2.97;;;;;;;;;;5009449;28;20038;-77
2022/08/15 12:39:13;;;;;;;4.85;2.60;;;;;;;;;;5009950;28;20034;-78
2022/08/15 12:41:41;;;;;;;5.05;2.90;;;;;;;;;;5009671;28;20606;-77
2022/08/15 12:44:18;;;;;;;4.38;2.90;;;;;;;;;;5009509;28;20429;-77
2022/08/15 12:46:44;;;;;;;5.20;2.83;;;;;;;;;;5009371;28;20082;-78
2022/08/15 12:49:09;;;;;;;5.57;2.83;;;;;;;;;;5009411;28;20041;-78
2022/08/15 12:51:34;;;;;;;6.55;2.90;;;;;;;;;;5009234;28;20030;-78
2022/08/15 12:54:00;;;;;;;5.43;2.80;;;;;;;;;;5009617;28;20876;-77
2022/08/15 12:56:25;;;;;;;5.80;2.72;;;;;;;;;;5009157;28;20026;-78
2022/08/15 12:58:51;;;;;;;5.10;2.65;;;;;;;;;;5009536;28;20401;-77
2022/08/15 13:01:17;;;;;;;4.32;2.53;;;;;;;;;;5009572;28;20137;-76
2022/08/15 13:03:45;;;;;;;6.55;2.88;;;;;;;;;;5009052;28;20030;-76
2022/08/15 13:06:46;;;;;;;7.47;2.60;;;;;;;;;;5008543;28;20053;-77
2022/08/15 13:09:13;;;;;;;6.65;2.60;;;;;;;;;;5024249;28;20038;-76
2022/08/15 13:11:40;;;;;;;12.02;2.70;;;;;;;;;;5009331;28;20022;-76
2022/08/15 13:14:07;;;;;;;5.63;2.70;;;;;;;;;;5009238;28;20105;-76
2022/08/15 13:16:33;;;;;;;6.65;2.83;;;;;;;;;;5009021;28;20018;-76
2022/08/15 13:19:17;;;;;;;7.75;2.90;;;;;;;;;;5008932;28;20026;-75
2022/08/15 13:24:28;;;;;;;5.50;2.75;;;;;;;;;;5008724;28;20055;-76
2022/08/15 13:26:54;;;;;;;6.05;2.60;;;;;;;;;;5008971;28;20026;-76
2022/08/15 13:29:20;;;;;;;8.07;2.97;;;;;;;;;;5009084;28;20119;-77
2022/08/15 13:31:46;;;;;;;6.13;3.00;;;;;;;;;;5008933;28;20026;-76
2022/08/15 13:34:13;;;;;;;6.13;2.72;;;;;;;;;;5009011;28;20033;-76
2022/08/15 13:36:39;;;;;;;6.45;2.70;;;;;;;;;;5008202;28;20069;-76
2022/08/15 13:39:10;;;;;;;6.68;2.80;;;;;;;;;;5008567;28;20057;-76
2022/08/15 13:41:35;;;;;;;3.92;2.58;;;;;;;;;;5008716;28;20022;-75
2022/08/15 13:44:06;;;;;;;5.93;2.50;;;;;;;;;;5008571;28;20394;-76
2022/08/15 13:46:32;;;;;;;6.50;2.88;;;;;;;;;;5008597;28;20401;-76
2022/08/15 13:48:58;;;;;;;6.93;2.70;;;;;;;;;;5008760;28;20112;-77
2022/08/15 13:51:30;;;;;;;7.20;2.85;;;;;;;;;;5008201;28;20034;-77
2022/08/15 13:53:58;;;;;;;6.97;2.80;;;;;;;;;;5008520;28;20511;-77
2022/08/15 13:56:24;;;;;;;7.20;2.80;;;;;;;;;;5008261;28;20034;-76
2022/08/15 13:58:50;;;;;;;8.38;2.90;;;;;;;;;;5008429;28;20041;-76
2022/08/15 14:01:20;;;;;;;6.43;2.65;;;;;;;;;;5008361;28;20037;-77
2022/08/15 14:03:53;;;;;;;6.63;2.58;;;;;;;;;;5008580;28;20151;-75
2022/08/15 14:06:20;;;;;;;5.95;2.60;;;;;;;;;;5007788;28;20069;-75
2022/08/15 14:08:47;;;;;;;6.90;2.35;;;;;;;;;;5008465;28;20030;-75
2022/08/15 14:11:13;;;;;;;5.35;2.53;;;;;;;;;;5008155;28;20078;-77
2022/08/15 14:13:38;;;;;;;8.05;2.35;;;;;;;;;;5008267;28;20026;-76
2022/08/15 14:16:04;;;;;;;6.60;2.83;;;;;;;;;;5008098;28;20038;-76
2022/08/15 14:18:35;;;;;;;5.60;2.40;;;;;;;;;;5006861;28;20022;-75
2022/08/15 14:21:00;;;;;;;;;;;;;;;;;;5008375;28;20034;-77
2022/08/15 14:23:26;;;;;;;6.85;2.80;;;;;;;;;;5008195;28;19914;-76
2022/08/15 14:25:52;;;;;;;5.07;2.42;;;;;;;;;;5007782;28;20628;-76
2022/08/15 14:28:18;;;;;;;5.40;2.70;;;;;;;;;;5008102;28;20018;-76
2022/08/15 14:30:44;;;;;;;5.78;2.63;;;;;;;;;;5007829;28;20028;-75
2022/08/15 14:33:10;;;;;;;6.80;2.40;;;;;;;;;;5007046;28;20022;-75
2022/08/15 14:35:36;;;;;;;5.40;2.45;;;;;;;;;;5007760;28;20033;-75
2022/08/15 14:38:03;;;;;;;4.38;2.40;;;;;;;;;;5007538;28;20037;-75
2022/08/15 14:40:34;;;;;;;4.88;2.30;;;;;;;;;;5008001;28;20417;-75
2022/08/15 14:43:00;;;;;;;5.47;2.40;;;;;;;;;;5007836;28;20079;-75
2022/08/15 14:45:28;;;;;;;6.80;2.25;;;;;;;;;;5007559;28;20026;-75
2022/08/15 14:47:54;;;;;;;6.15;2.30;;;;;;;;;;5007684;28;20086;-75
2022/08/15 14:50:22;;;;;;;5.53;2.58;;;;;;;;;;5007611;28;20034;-75
2022/08/15 14:52:48;;;;;;;5.15;2.53;;;;;;;;;;5007330;28;20018;-76
2022/08/15 14:55:15;;;;;;;4.88;2.53;;;;;;;;;;5007445;28;20094;-76
2022/08/15 14:57:40;;;;;;;6.45;2.67;;;;;;;;;;5007569;28;20490;-76
2022/08/15 15:00:09;;;;;;;6.53;2.75;;;;;;;;;;5007705;28;20517;-77
2022/08/15 15:02:36;;;;;;;5.05;2.40;;;;;;;;;;5007611;28;20068;-76
2022/08/15 15:05:10;;;;;;;7.60;2.67;;;;;;;;;;5022160;28;20393;-74
2022/08/15 15:07:37;;;;;;;4.97;2.22;;;;;;;;;;5023131;28;20044;-74
2022/08/15 15:10:05;;;;;;;5.07;2.38;;;;;;;;;;5023135;28;20022;-74
2022/08/15 15:12:33;;;;;;;5.85;2.55;;;;;;;;;;5023188;28;20436;-74
2022/08/15 15:14:59;;;;;;;5.75;2.30;;;;;;;;;;5023240;28;20034;-75
2022/08/15 15:17:24;;;;;;;6.32;2.60;;;;;;;;;;5023294;28;20041;-74